sensor_id;sensor_type;location;lat;lon;timestamp;pressure;altitude;pressure_sealevel;temperature
64960;BMP180;51487;52.266;10.542;2023-02-26T00:02:23;100444.00;;;-1.00
64960;BMP180;51487;52.266;10.542;2023-02-26T00:04:49;100462.00;;;-0.90
64960;BMP180;51487;52.266;10.542;2023-02-26T00:07:14;100467.00;;;-1.00
64960;BMP180;51487;52.266;10.542;2023-02-26T00:09:40;100448.00;;;-1.20
64960;BMP180;51487;52.266;10.542;2023-02-26T00:12:08;100448.00;;;-1.10
64960;BMP180;51487;52.266;10.542;2023-02-26T00:14:36;100481.00;;;-0.90
64960;BMP180;51487;52.266;10.542;2023-02-26T00:19:59;100479.00;;;-0.90
64960;BMP180;51487;52.266;10.542;2023-02-26T00:22:25;100466.00;;;-1.10
64960;BMP180;51487;52.266;10.542;2023-02-26T00:24:51;100487.00;;;-1.10
64960;BMP180;51487;52.266;10.542;2023-02-26T00:27:17;100476.00;;;-1.10
64960;BMP180;51487;52.266;10.542;2023-02-26T00:29:43;100491.00;;;-1.20
64960;BMP180;51487;52.266;10.542;2023-02-26T00:32:10;100459.00;;;-1.30
64960;BMP180;51487;52.266;10.542;2023-02-26T00:34:36;100510.00;;;-1.30
64960;BMP180;51487;52.266;10.542;2023-02-26T00:37:11;100510.00;;;-1.30
64960;BMP180;51487;52.266;10.542;2023-02-26T00:40:07;100514.00;;;-1.30
64960;BMP180;51487;52.266;10.542;2023-02-26T00:42:56;100510.00;;;-1.40
64960;BMP180;51487;52.266;10.542;2023-02-26T00:45:22;100501.00;;;-1.40
64960;BMP180;51487;52.266;10.542;2023-02-26T00:47:59;100512.00;;;-1.30
64960;BMP180;51487;52.266;10.542;2023-02-26T00:50:53;100509.00;;;-1.30
64960;BMP180;51487;52.266;10.542;2023-02-26T00:53:30;100523.00;;;-1.50
64960;BMP180;51487;52.266;10.542;2023-02-26T00:56:00;100519.00;;;-1.60
64960;BMP180;51487;52.266;10.542;2023-02-26T00:58:25;100520.00;;;-1.50
64960;BMP180;51487;52.266;10.542;2023-02-26T01:00:51;100492.00;;;-1.50
64960;BMP180;51487;52.266;10.542;2023-02-26T01:03:16;100512.00;;;-1.50
64960;BMP180;51487;52.266;10.542;2023-02-26T01:05:42;100486.00;;;-1.40
64960;BMP180;51487;52.266;10.542;2023-02-26T01:08:22;100468.00;;;-1.30
64960;BMP180;51487;52.266;10.542;2023-02-26T01:10:51;100471.00;;;-1.20
64960;BMP180;51487;52.266;10.542;2023-02-26T01:13:17;100490.00;;;-1.20
64960;BMP180;51487;52.266;10.542;2023-02-26T01:15:47;100496.00;;;-1.20
64960;BMP180;51487;52.266;10.542;2023-02-26T01:18:27;100508.00;;;-1.30
64960;BMP180;51487;52.266;10.542;2023-02-26T01:21:02;100494.00;;;-1.30
64960;BMP180;51487;52.266;10.542;2023-02-26T01:23:37;100497.00;;;-1.40
64960;BMP180;51487;52.266;10.542;2023-02-26T01:26:10;100540.00;;;-1.40
64960;BMP180;51487;52.266;10.542;2023-02-26T01:28:58;100535.00;;;-1.40
64960;BMP180;51487;52.266;10.542;2023-02-26T01:34:22;100533.00;;;-1.30
64960;BMP180;51487;52.266;10.542;2023-02-26T01:37:28;100542.00;;;-1.40
64960;BMP180;51487;52.266;10.542;2023-02-26T01:42:53;100543.00;;;-1.40
64960;BMP180;51487;52.266;10.542;2023-02-26T01:45:31;100554.00;;;-1.50
64960;BMP180;51487;52.266;10.542;2023-02-26T01:48:02;100549.00;;;-1.40
64960;BMP180;51487;52.266;10.542;2023-02-26T01:50:37;100556.00;;;-1.30
64960;BMP180;51487;52.266;10.542;2023-02-26T01:53:16;100539.00;;;-1.40
64960;BMP180;51487;52.266;10.542;2023-02-26T01:55:45;100540.00;;;-1.20
64960;BMP180;51487;52.266;10.542;2023-02-26T01:58:14;100558.00;;;-1.20
64960;BMP180;51487;52.266;10.542;2023-02-26T02:00:41;100555.00;;;-1.10
64960;BMP180;51487;52.266;10.542;2023-02-26T02:03:07;100556.00;;;-1.10
64960;BMP180;51487;52.266;10.542;2023-02-26T02:05:40;100556.00;;;-1.00
64960;BMP180;51487;52.266;10.542;2023-02-26T02:08:12;100569.00;;;-1.20
64960;BMP180;51487;52.266;10.542;2023-02-26T02:10:43;100575.00;;;-1.10
64960;BMP180;51487;52.266;10.542;2023-02-26T02:13:22;100581.00;;;-1.00
64960;BMP180;51487;52.266;10.542;2023-02-26T02:24:18;100563.00;;;-1.00
64960;BMP180;51487;52.266;10.542;2023-02-26T02:27:18;100550.00;;;-1.10
64960;BMP180;51487;52.266;10.542;2023-02-26T02:33:20;100572.00;;;-1.10
64960;BMP180;51487;52.266;10.542;2023-02-26T02:35:56;100579.00;;;-1.20
64960;BMP180;51487;52.266;10.542;2023-02-26T02:38:41;100574.00;;;-1.20
64960;BMP180;51487;52.266;10.542;2023-02-26T02:41:20;100568.00;;;-1.10
64960;BMP180;51487;52.266;10.542;2023-02-26T02:43:51;100564.00;;;-1.10
64960;BMP180;51487;52.266;10.542;2023-02-26T02:46:23;100562.00;;;-1.10
64960;BMP180;51487;52.266;10.542;2023-02-26T02:51:55;100575.00;;;-1.10
64960;BMP180;51487;52.266;10.542;2023-02-26T02:54:44;100572.00;;;-1.10
64960;BMP180;51487;52.266;10.542;2023-02-26T02:57:20;100603.00;;;-1.10
64960;BMP180;51487;52.266;10.542;2023-02-26T02:59:53;100597.00;;;-1.20
64960;BMP180;51487;52.266;10.542;2023-02-26T03:02:36;100591.00;;;-1.20
64960;BMP180;51487;52.266;10.542;2023-02-26T03:05:16;100588.00;;;-1.10
64960;BMP180;51487;52.266;10.542;2023-02-26T03:07:49;100595.00;;;-1.10
64960;BMP180;51487;52.266;10.542;2023-02-26T03:10:22;100598.00;;;-0.90
64960;BMP180;51487;52.266;10.542;2023-02-26T03:12:48;100604.00;;;-0.90
64960;BMP180;51487;52.266;10.542;2023-02-26T03:15:14;100595.00;;;-0.90
64960;BMP180;51487;52.266;10.542;2023-02-26T03:17:58;100589.00;;;-0.80
64960;BMP180;51487;52.266;10.542;2023-02-26T03:20:34;100591.00;;;-0.90
64960;BMP180;51487;52.266;10.542;2023-02-26T03:23:26;100600.00;;;-0.90
64960;BMP180;51487;52.266;10.542;2023-02-26T03:26:07;100593.00;;;-1.00
64960;BMP180;51487;52.266;10.542;2023-02-26T03:28:48;100596.00;;;-1.00
64960;BMP180;51487;52.266;10.542;2023-02-26T03:31:25;100594.00;;;-0.90
64960;BMP180;51487;52.266;10.542;2023-02-26T03:34:02;100602.00;;;-0.90
64960;BMP180;51487;52.266;10.542;2023-02-26T03:36:55;100598.00;;;-0.80
64960;BMP180;51487;52.266;10.542;2023-02-26T03:39:37;100581.00;;;-0.90
64960;BMP180;51487;52.266;10.542;2023-02-26T03:42:10;100569.00;;;-0.90
64960;BMP180;51487;52.266;10.542;2023-02-26T03:44:50;100582.00;;;-0.90
64960;BMP180;51487;52.266;10.542;2023-02-26T03:47:19;100592.00;;;-0.90
64960;BMP180;51487;52.266;10.542;2023-02-26T03:49:52;100595.00;;;-0.80
64960;BMP180;51487;52.266;10.542;2023-02-26T03:52:24;100593.00;;;-0.80
64960;BMP180;51487;52.266;10.542;2023-02-26T03:57:50;100591.00;;;-0.70
64960;BMP180;51487;52.266;10.542;2023-02-26T04:00:17;100601.00;;;-0.90
64960;BMP180;51487;52.266;10.542;2023-02-26T04:05:49;100582.00;;;-0.80
64960;BMP180;51487;52.266;10.542;2023-02-26T04:08:16;100578.00;;;-0.80
64960;BMP180;51487;52.266;10.542;2023-02-26T04:11:11;100583.00;;;-0.90
64960;BMP180;51487;52.266;10.542;2023-02-26T04:13:41;100577.00;;;-0.80
64960;BMP180;51487;52.266;10.542;2023-02-26T04:16:07;100578.00;;;-0.70
64960;BMP180;51487;52.266;10.542;2023-02-26T04:18:33;100559.00;;;-0.60
64960;BMP180;51487;52.266;10.542;2023-02-26T04:20:58;100569.00;;;-0.50
64960;BMP180;51487;52.266;10.542;2023-02-26T04:23:24;100564.00;;;-0.70
64960;BMP180;51487;52.266;10.542;2023-02-26T04:25:49;100573.00;;;-0.80
64960;BMP180;51487;52.266;10.542;2023-02-26T04:28:16;100574.00;;;-0.70
64960;BMP180;51487;52.266;10.542;2023-02-26T04:30:41;100579.00;;;-0.60
64960;BMP180;51487;52.266;10.542;2023-02-26T04:33:07;100565.00;;;-0.70
64960;BMP180;51487;52.266;10.542;2023-02-26T04:35:32;100512.00;;;-0.70
64960;BMP180;51487;52.266;10.542;2023-02-26T04:37:58;100593.00;;;-0.70
64960;BMP180;51487;52.266;10.542;2023-02-26T04:40:23;100600.00;;;-0.60
64960;BMP180;51487;52.266;10.542;2023-02-26T04:42:49;100596.00;;;-0.70
64960;BMP180;51487;52.266;10.542;2023-02-26T04:45:15;100632.00;;;-0.80
64960;BMP180;51487;52.266;10.542;2023-02-26T04:47:40;100626.00;;;-0.80
64960;BMP180;51487;52.266;10.542;2023-02-26T04:50:07;100621.00;;;-0.80
64960;BMP180;51487;52.266;10.542;2023-02-26T04:52:33;100622.00;;;-0.60
64960;BMP180;51487;52.266;10.542;2023-02-26T04:54:59;100751.00;;;-0.60
64960;BMP180;51487;52.266;10.542;2023-02-26T04:57:24;100751.00;;;-0.60
64960;BMP180;51487;52.266;10.542;2023-02-26T04:59:50;100756.00;;;-0.70
64960;BMP180;51487;52.266;10.542;2023-02-26T05:02:16;100761.00;;;-0.70
64960;BMP180;51487;52.266;10.542;2023-02-26T05:04:41;100755.00;;;-0.70
64960;BMP180;51487;52.266;10.542;2023-02-26T05:07:07;100772.00;;;-0.60
64960;BMP180;51487;52.266;10.542;2023-02-26T05:09:32;100766.00;;;-0.60
64960;BMP180;51487;52.266;10.542;2023-02-26T05:11:58;100764.00;;;-0.70
64960;BMP180;51487;52.266;10.542;2023-02-26T05:14:24;100780.00;;;-0.60
64960;BMP180;51487;52.266;10.542;2023-02-26T05:16:49;100771.00;;;-0.70
64960;BMP180;51487;52.266;10.542;2023-02-26T05:19:15;100795.00;;;-0.60
64960;BMP180;51487;52.266;10.542;2023-02-26T05:21:40;100795.00;;;-0.60
64960;BMP180;51487;52.266;10.542;2023-02-26T05:24:06;100804.00;;;-0.60
64960;BMP180;51487;52.266;10.542;2023-02-26T05:26:32;100818.00;;;-0.50
64960;BMP180;51487;52.266;10.542;2023-02-26T05:28:57;100822.00;;;-0.70
64960;BMP180;51487;52.266;10.542;2023-02-26T05:31:26;100828.00;;;-0.80
64960;BMP180;51487;52.266;10.542;2023-02-26T05:33:52;100835.00;;;-0.80
64960;BMP180;51487;52.266;10.542;2023-02-26T05:36:18;100821.00;;;-0.90
64960;BMP180;51487;52.266;10.542;2023-02-26T05:38:43;100804.00;;;-0.90
64960;BMP180;51487;52.266;10.542;2023-02-26T05:41:09;100823.00;;;-1.00
64960;BMP180;51487;52.266;10.542;2023-02-26T05:43:34;100821.00;;;-1.10
64960;BMP180;51487;52.266;10.542;2023-02-26T05:46:00;100822.00;;;-1.10
64960;BMP180;51487;52.266;10.542;2023-02-26T05:48:29;100844.00;;;-1.10
64960;BMP180;51487;52.266;10.542;2023-02-26T05:50:55;100861.00;;;-1.10
64960;BMP180;51487;52.266;10.542;2023-02-26T05:53:21;100864.00;;;-1.10
64960;BMP180;51487;52.266;10.542;2023-02-26T05:55:46;100868.00;;;-1.10
64960;BMP180;51487;52.266;10.542;2023-02-26T05:58:14;100870.00;;;-1.10
64960;BMP180;51487;52.266;10.542;2023-02-26T06:00:41;100890.00;;;-1.10
64960;BMP180;51487;52.266;10.542;2023-02-26T06:03:06;100888.00;;;-1.10
64960;BMP180;51487;52.266;10.542;2023-02-26T06:05:32;100893.00;;;-1.30
64960;BMP180;51487;52.266;10.542;2023-02-26T06:08:00;100891.00;;;-1.30
64960;BMP180;51487;52.266;10.542;2023-02-26T06:10:26;100895.00;;;-1.20
64960;BMP180;51487;52.266;10.542;2023-02-26T06:12:52;100900.00;;;-1.20
64960;BMP180;51487;52.266;10.542;2023-02-26T06:15:17;100903.00;;;-1.20
64960;BMP180;51487;52.266;10.542;2023-02-26T06:17:43;100904.00;;;-1.20
64960;BMP180;51487;52.266;10.542;2023-02-26T06:20:09;100909.00;;;-1.20
64960;BMP180;51487;52.266;10.542;2023-02-26T06:22:36;100906.00;;;-1.30
64960;BMP180;51487;52.266;10.542;2023-02-26T06:25:01;100882.00;;;-1.30
64960;BMP180;51487;52.266;10.542;2023-02-26T06:27:27;100915.00;;;-1.20
64960;BMP180;51487;52.266;10.542;2023-02-26T06:29:53;100917.00;;;-1.20
64960;BMP180;51487;52.266;10.542;2023-02-26T06:32:18;100937.00;;;-1.30
64960;BMP180;51487;52.266;10.542;2023-02-26T06:34:44;100933.00;;;-1.30
64960;BMP180;51487;52.266;10.542;2023-02-26T06:37:09;100930.00;;;-1.20
64960;BMP180;51487;52.266;10.542;2023-02-26T06:39:35;100934.00;;;-1.20
64960;BMP180;51487;52.266;10.542;2023-02-26T06:42:00;100922.00;;;-1.20
64960;BMP180;51487;52.266;10.542;2023-02-26T06:44:26;100938.00;;;-1.20
64960;BMP180;51487;52.266;10.542;2023-02-26T06:46:51;100936.00;;;-1.10
64960;BMP180;51487;52.266;10.542;2023-02-26T06:49:17;100927.00;;;-1.20
64960;BMP180;51487;52.266;10.542;2023-02-26T06:51:45;100954.00;;;-1.20
64960;BMP180;51487;52.266;10.542;2023-02-26T06:54:10;100955.00;;;-1.10
64960;BMP180;51487;52.266;10.542;2023-02-26T06:56:36;100960.00;;;-1.00
64960;BMP180;51487;52.266;10.542;2023-02-26T06:59:01;100958.00;;;-1.10
64960;BMP180;51487;52.266;10.542;2023-02-26T07:01:27;100941.00;;;-1.00
64960;BMP180;51487;52.266;10.542;2023-02-26T07:03:52;100941.00;;;-0.90
64960;BMP180;51487;52.266;10.542;2023-02-26T07:06:18;100932.00;;;-0.90
64960;BMP180;51487;52.266;10.542;2023-02-26T07:08:44;100954.00;;;-0.90
64960;BMP180;51487;52.266;10.542;2023-02-26T07:11:09;100945.00;;;-0.80
64960;BMP180;51487;52.266;10.542;2023-02-26T07:13:36;100964.00;;;-0.80
64960;BMP180;51487;52.266;10.542;2023-02-26T07:16:04;100968.00;;;-0.80
64960;BMP180;51487;52.266;10.542;2023-02-26T07:18:35;100997.00;;;-0.70
64960;BMP180;51487;52.266;10.542;2023-02-26T07:21:02;100990.00;;;-0.60
64960;BMP180;51487;52.266;10.542;2023-02-26T07:23:29;100985.00;;;-0.60
64960;BMP180;51487;52.266;10.542;2023-02-26T07:25:54;100998.00;;;-0.50
64960;BMP180;51487;52.266;10.542;2023-02-26T07:28:21;100999.00;;;-0.50
64960;BMP180;51487;52.266;10.542;2023-02-26T07:30:47;100994.00;;;-0.60
64960;BMP180;51487;52.266;10.542;2023-02-26T07:33:13;101022.00;;;-0.50
64960;BMP180;51487;52.266;10.542;2023-02-26T07:35:39;101027.00;;;-0.60
64960;BMP180;51487;52.266;10.542;2023-02-26T07:38:05;101012.00;;;-0.50
64960;BMP180;51487;52.266;10.542;2023-02-26T07:40:31;101019.00;;;-0.60
64960;BMP180;51487;52.266;10.542;2023-02-26T07:42:57;101030.00;;;-0.60
64960;BMP180;51487;52.266;10.542;2023-02-26T07:45:23;101034.00;;;-0.50
64960;BMP180;51487;52.266;10.542;2023-02-26T07:47:51;101041.00;;;-0.40
64960;BMP180;51487;52.266;10.542;2023-02-26T07:50:17;101041.00;;;-0.40
64960;BMP180;51487;52.266;10.542;2023-02-26T07:52:43;101027.00;;;-0.30
64960;BMP180;51487;52.266;10.542;2023-02-26T07:55:10;101055.00;;;-0.30
64960;BMP180;51487;52.266;10.542;2023-02-26T07:57:35;101062.00;;;-0.30
64960;BMP180;51487;52.266;10.542;2023-02-26T08:00:01;101074.00;;;-0.20
64960;BMP180;51487;52.266;10.542;2023-02-26T08:02:28;101089.00;;;-0.30
64960;BMP180;51487;52.266;10.542;2023-02-26T08:04:54;101087.00;;;-0.30
64960;BMP180;51487;52.266;10.542;2023-02-26T08:07:19;101088.00;;;-0.20
64960;BMP180;51487;52.266;10.542;2023-02-26T08:09:45;101083.00;;;-0.10
64960;BMP180;51487;52.266;10.542;2023-02-26T08:12:11;101096.00;;;0.00
64960;BMP180;51487;52.266;10.542;2023-02-26T08:14:36;101087.00;;;-0.20
64960;BMP180;51487;52.266;10.542;2023-02-26T08:17:02;101080.00;;;-0.20
64960;BMP180;51487;52.266;10.542;2023-02-26T08:19:27;101061.00;;;-0.10
64960;BMP180;51487;52.266;10.542;2023-02-26T08:21:53;101081.00;;;0.00
64960;BMP180;51487;52.266;10.542;2023-02-26T08:24:20;101090.00;;;0.00
64960;BMP180;51487;52.266;10.542;2023-02-26T08:26:46;101102.00;;;0.20
64960;BMP180;51487;52.266;10.542;2023-02-26T08:29:12;101122.00;;;0.10
64960;BMP180;51487;52.266;10.542;2023-02-26T08:31:38;101120.00;;;0.00
64960;BMP180;51487;52.266;10.542;2023-02-26T08:34:03;101129.00;;;0.20
64960;BMP180;51487;52.266;10.542;2023-02-26T08:36:30;101127.00;;;0.10
64960;BMP180;51487;52.266;10.542;2023-02-26T08:38:56;101127.00;;;0.00
64960;BMP180;51487;52.266;10.542;2023-02-26T08:41:22;101134.00;;;-0.10
64960;BMP180;51487;52.266;10.542;2023-02-26T08:43:48;101143.00;;;0.00
64960;BMP180;51487;52.266;10.542;2023-02-26T08:46:14;101152.00;;;0.10
64960;BMP180;51487;52.266;10.542;2023-02-26T08:48:40;101151.00;;;0.20
64960;BMP180;51487;52.266;10.542;2023-02-26T08:51:05;101168.00;;;0.30
64960;BMP180;51487;52.266;10.542;2023-02-26T08:53:31;101164.00;;;0.30
64960;BMP180;51487;52.266;10.542;2023-02-26T08:55:56;101168.00;;;0.20
64960;BMP180;51487;52.266;10.542;2023-02-26T08:58:22;101166.00;;;0.30
64960;BMP180;51487;52.266;10.542;2023-02-26T09:00:48;101185.00;;;0.30
64960;BMP180;51487;52.266;10.542;2023-02-26T09:03:14;101195.00;;;0.30
64960;BMP180;51487;52.266;10.542;2023-02-26T09:05:39;101191.00;;;0.40
64960;BMP180;51487;52.266;10.542;2023-02-26T09:08:06;101183.00;;;0.40
64960;BMP180;51487;52.266;10.542;2023-02-26T09:10:32;101188.00;;;0.50
64960;BMP180;51487;52.266;10.542;2023-02-26T09:12:57;101190.00;;;0.40
64960;BMP180;51487;52.266;10.542;2023-02-26T09:15:23;101191.00;;;0.50
64960;BMP180;51487;52.266;10.542;2023-02-26T09:17:48;101190.00;;;0.50
64960;BMP180;51487;52.266;10.542;2023-02-26T09:20:16;101206.00;;;0.50
64960;BMP180;51487;52.266;10.542;2023-02-26T09:22:41;101205.00;;;0.60
64960;BMP180;51487;52.266;10.542;2023-02-26T09:25:08;101204.00;;;0.60
64960;BMP180;51487;52.266;10.542;2023-02-26T09:27:34;101210.00;;;0.60
64960;BMP180;51487;52.266;10.542;2023-02-26T09:30:00;101210.00;;;0.60
64960;BMP180;51487;52.266;10.542;2023-02-26T09:32:27;101215.00;;;0.80
64960;BMP180;51487;52.266;10.542;2023-02-26T09:34:52;101206.00;;;0.80
64960;BMP180;51487;52.266;10.542;2023-02-26T09:37:18;101212.00;;;1.00
64960;BMP180;51487;52.266;10.542;2023-02-26T09:39:44;101209.00;;;0.90
64960;BMP180;51487;52.266;10.542;2023-02-26T09:45:03;101220.00;;;0.90
64960;BMP180;51487;52.266;10.542;2023-02-26T09:47:52;101219.00;;;0.90
64960;BMP180;51487;52.266;10.542;2023-02-26T09:50:21;101225.00;;;1.00
64960;BMP180;51487;52.266;10.542;2023-02-26T09:53:15;101215.00;;;0.90
64960;BMP180;51487;52.266;10.542;2023-02-26T09:55:47;101217.00;;;0.80
64960;BMP180;51487;52.266;10.542;2023-02-26T10:12:27;101229.00;;;1.20
64960;BMP180;51487;52.266;10.542;2023-02-26T10:25:40;101240.00;;;1.30
64960;BMP180;51487;52.266;10.542;2023-02-26T10:40:13;101262.00;;;1.70
64960;BMP180;51487;52.266;10.542;2023-02-26T10:48:45;101275.00;;;1.80
64960;BMP180;51487;52.266;10.542;2023-02-26T10:51:22;101283.00;;;1.90
64960;BMP180;51487;52.266;10.542;2023-02-26T10:53:57;101278.00;;;1.80
64960;BMP180;51487;52.266;10.542;2023-02-26T10:56:32;101280.00;;;1.80
64960;BMP180;51487;52.266;10.542;2023-02-26T10:58:59;101291.00;;;1.70
64960;BMP180;51487;52.266;10.542;2023-02-26T11:01:26;101284.00;;;1.60
64960;BMP180;51487;52.266;10.542;2023-02-26T11:04:04;101294.00;;;1.50
64960;BMP180;51487;52.266;10.542;2023-02-26T11:06:39;101285.00;;;1.70
64960;BMP180;51487;52.266;10.542;2023-02-26T11:09:24;101286.00;;;1.80
64960;BMP180;51487;52.266;10.542;2023-02-26T11:11:55;101291.00;;;1.80
64960;BMP180;51487;52.266;10.542;2023-02-26T11:14:24;101289.00;;;1.90
64960;BMP180;51487;52.266;10.542;2023-02-26T11:16:53;101296.00;;;1.90
64960;BMP180;51487;52.266;10.542;2023-02-26T11:19:28;101286.00;;;2.10
64960;BMP180;51487;52.266;10.542;2023-02-26T11:21:58;101294.00;;;2.10
64960;BMP180;51487;52.266;10.542;2023-02-26T11:27:34;101281.00;;;2.20
64960;BMP180;51487;52.266;10.542;2023-02-26T11:30:06;101285.00;;;2.30
64960;BMP180;51487;52.266;10.542;2023-02-26T11:32:44;101295.00;;;2.20
64960;BMP180;51487;52.266;10.542;2023-02-26T11:35:14;101298.00;;;2.10
64960;BMP180;51487;52.266;10.542;2023-02-26T11:37:47;101295.00;;;1.90
64960;BMP180;51487;52.266;10.542;2023-02-26T11:40:22;101293.00;;;2.00
64960;BMP180;51487;52.266;10.542;2023-02-26T11:42:55;101297.00;;;2.00
64960;BMP180;51487;52.266;10.542;2023-02-26T11:45:25;101295.00;;;2.20
64960;BMP180;51487;52.266;10.542;2023-02-26T11:48:02;101294.00;;;2.50
64960;BMP180;51487;52.266;10.542;2023-02-26T11:50:37;101298.00;;;2.40
64960;BMP180;51487;52.266;10.542;2023-02-26T11:53:15;101250.00;;;2.40
64960;BMP180;51487;52.266;10.542;2023-02-26T11:55:51;101107.00;;;2.40
64960;BMP180;51487;52.266;10.542;2023-02-26T11:58:22;101263.00;;;2.20
64960;BMP180;51487;52.266;10.542;2023-02-26T12:00:53;101262.00;;;2.20
64960;BMP180;51487;52.266;10.542;2023-02-26T12:03:25;101273.00;;;2.30
64960;BMP180;51487;52.266;10.542;2023-02-26T12:05:53;101283.00;;;2.40
64960;BMP180;51487;52.266;10.542;2023-02-26T12:13:59;101295.00;;;2.20
64960;BMP180;51487;52.266;10.542;2023-02-26T12:28:41;101247.00;;;2.50
64960;BMP180;51487;52.266;10.542;2023-02-26T12:32:06;101250.00;;;2.50
64960;BMP180;51487;52.266;10.542;2023-02-26T12:46:18;101294.00;;;2.70
64960;BMP180;51487;52.266;10.542;2023-02-26T12:52:52;101297.00;;;2.60
64960;BMP180;51487;52.266;10.542;2023-02-26T13:06:42;101296.00;;;2.60
64960;BMP180;51487;52.266;10.542;2023-02-26T13:12:13;101292.00;;;2.60
64960;BMP180;51487;52.266;10.542;2023-02-26T13:20:26;101260.00;;;2.50
64960;BMP180;51487;52.266;10.542;2023-02-26T13:23:03;101256.00;;;2.60
64960;BMP180;51487;52.266;10.542;2023-02-26T13:25:52;101259.00;;;2.70
64960;BMP180;51487;52.266;10.542;2023-02-26T13:28:43;101263.00;;;2.70
64960;BMP180;51487;52.266;10.542;2023-02-26T13:31:25;101252.00;;;2.60
64960;BMP180;51487;52.266;10.542;2023-02-26T13:33:58;101249.00;;;2.60
64960;BMP180;51487;52.266;10.542;2023-02-26T13:36:28;101256.00;;;2.60
64960;BMP180;51487;52.266;10.542;2023-02-26T13:42:03;101249.00;;;2.90
64960;BMP180;51487;52.266;10.542;2023-02-26T13:44:50;101250.00;;;2.90
64960;BMP180;51487;52.266;10.542;2023-02-26T13:56:22;101235.00;;;2.80
64960;BMP180;51487;52.266;10.542;2023-02-26T13:59:24;101256.00;;;2.80
64960;BMP180;51487;52.266;10.542;2023-02-26T14:02:01;101239.00;;;2.80
64960;BMP180;51487;52.266;10.542;2023-02-26T14:04:57;101255.00;;;2.80
64960;BMP180;51487;52.266;10.542;2023-02-26T14:07:53;101244.00;;;2.90
64960;BMP180;51487;52.266;10.542;2023-02-26T14:13:17;101239.00;;;2.80
64960;BMP180;51487;52.266;10.542;2023-02-26T14:16:08;101236.00;;;3.00
64960;BMP180;51487;52.266;10.542;2023-02-26T14:19:03;101232.00;;;2.80
64960;BMP180;51487;52.266;10.542;2023-02-26T14:27:50;101244.00;;;2.90
64960;BMP180;51487;52.266;10.542;2023-02-26T14:31:20;101265.00;;;2.90
64960;BMP180;51487;52.266;10.542;2023-02-26T14:34:19;101268.00;;;2.90
64960;BMP180;51487;52.266;10.542;2023-02-26T14:36:53;101290.00;;;3.00
64960;BMP180;51487;52.266;10.542;2023-02-26T14:39:44;101308.00;;;3.00
64960;BMP180;51487;52.266;10.542;2023-02-26T14:47:48;101304.00;;;3.00
64960;BMP180;51487;52.266;10.542;2023-02-26T14:50:17;101272.00;;;3.10
64960;BMP180;51487;52.266;10.542;2023-02-26T14:53:11;101324.00;;;3.30
64960;BMP180;51487;52.266;10.542;2023-02-26T14:56:10;101352.00;;;3.30
64960;BMP180;51487;52.266;10.542;2023-02-26T15:02:17;101350.00;;;3.30
64960;BMP180;51487;52.266;10.542;2023-02-26T15:08:15;101349.00;;;3.40
64960;BMP180;51487;52.266;10.542;2023-02-26T15:14:04;101352.00;;;3.40
64960;BMP180;51487;52.266;10.542;2023-02-26T15:22:16;101371.00;;;3.30
64960;BMP180;51487;52.266;10.542;2023-02-26T15:25:10;101351.00;;;3.10
64960;BMP180;51487;52.266;10.542;2023-02-26T15:27:48;101370.00;;;3.20
64960;BMP180;51487;52.266;10.542;2023-02-26T15:30:14;101356.00;;;3.10
64960;BMP180;51487;52.266;10.542;2023-02-26T15:32:40;101373.00;;;3.20
64960;BMP180;51487;52.266;10.542;2023-02-26T15:35:14;101379.00;;;3.20
64960;BMP180;51487;52.266;10.542;2023-02-26T15:37:42;101375.00;;;3.10
64960;BMP180;51487;52.266;10.542;2023-02-26T15:40:10;101376.00;;;3.20
64960;BMP180;51487;52.266;10.542;2023-02-26T15:42:40;101381.00;;;3.30
64960;BMP180;51487;52.266;10.542;2023-02-26T15:45:17;101375.00;;;3.30
64960;BMP180;51487;52.266;10.542;2023-02-26T15:47:54;101368.00;;;3.10
64960;BMP180;51487;52.266;10.542;2023-02-26T15:50:28;101389.00;;;3.00
64960;BMP180;51487;52.266;10.542;2023-02-26T15:53:00;101382.00;;;2.90
64960;BMP180;51487;52.266;10.542;2023-02-26T15:55:31;101379.00;;;3.00
64960;BMP180;51487;52.266;10.542;2023-02-26T15:58:00;101373.00;;;3.00
64960;BMP180;51487;52.266;10.542;2023-02-26T16:00:31;101377.00;;;3.10
64960;BMP180;51487;52.266;10.542;2023-02-26T16:02:59;101383.00;;;3.00
64960;BMP180;51487;52.266;10.542;2023-02-26T16:05:26;101383.00;;;3.20
64960;BMP180;51487;52.266;10.542;2023-02-26T16:07:54;101380.00;;;3.00
64960;BMP180;51487;52.266;10.542;2023-02-26T16:10:41;101381.00;;;3.00
64960;BMP180;51487;52.266;10.542;2023-02-26T16:13:16;101382.00;;;3.00
64960;BMP180;51487;52.266;10.542;2023-02-26T16:16:09;101394.00;;;3.00
64960;BMP180;51487;52.266;10.542;2023-02-26T16:18:39;101402.00;;;3.00
64960;BMP180;51487;52.266;10.542;2023-02-26T16:21:08;101397.00;;;2.90
64960;BMP180;51487;52.266;10.542;2023-02-26T16:23:47;101394.00;;;2.90
64960;BMP180;51487;52.266;10.542;2023-02-26T16:26:25;101408.00;;;2.90
64960;BMP180;51487;52.266;10.542;2023-02-26T16:29:00;101408.00;;;2.80
64960;BMP180;51487;52.266;10.542;2023-02-26T16:31:31;101431.00;;;2.80
64960;BMP180;51487;52.266;10.542;2023-02-26T16:36:52;101424.00;;;2.60
64960;BMP180;51487;52.266;10.542;2023-02-26T16:39:25;101431.00;;;2.70
64960;BMP180;51487;52.266;10.542;2023-02-26T16:46:59;101436.00;;;2.60
64960;BMP180;51487;52.266;10.542;2023-02-26T16:49:34;101446.00;;;2.60
64960;BMP180;51487;52.266;10.542;2023-02-26T16:52:02;101450.00;;;2.60
64960;BMP180;51487;52.266;10.542;2023-02-26T16:54:33;101449.00;;;2.70
64960;BMP180;51487;52.266;10.542;2023-02-26T16:59:39;101458.00;;;2.50
64960;BMP180;51487;52.266;10.542;2023-02-26T17:02:17;101457.00;;;2.50
64960;BMP180;51487;52.266;10.542;2023-02-26T17:04:52;101458.00;;;2.40
64960;BMP180;51487;52.266;10.542;2023-02-26T17:07:29;101460.00;;;2.40
64960;BMP180;51487;52.266;10.542;2023-02-26T17:10:04;101460.00;;;2.30
64960;BMP180;51487;52.266;10.542;2023-02-26T17:12:43;101468.00;;;2.20
64960;BMP180;51487;52.266;10.542;2023-02-26T17:15:20;101476.00;;;2.10
64960;BMP180;51487;52.266;10.542;2023-02-26T17:17:53;101471.00;;;2.00
64960;BMP180;51487;52.266;10.542;2023-02-26T17:20:23;101471.00;;;2.00